Grimsholm — LAKF — position and weather

sailwx.info

Track history (hours):
 
Tides and Currents Weather Stations Pressure Air Temp Water Temp Dewpoint Dewpoint Depression Visibility Wind Speed Wind Dir Waves Ship Positions

Grimsholm

Last reported at 2018-May-25 01:00 UTC. Time now 2018-May-25 00:58 UTC.
Position N 65°34' E 012°13'.

Length 50 m; draft 7 m.

Type: Fishing. MMSI: 259465000.

Date/timePositionNaut miles runAvg speedWind from/ knotsBaromVisibWave heightAir tempDewpointWater temp
2018-May-25 01:00N 65°34' E 012°13'510.3
2018-May-25 00:29N 65°39' E 012°14'510.2
2018-May-25 00:00N 65°44' E 012°17'510.2
2018-May-24 23:30N 65°48' E 012°20'510.1
2018-May-24 23:00N 65°54' E 012°22'5 9.4
2018-May-24 22:29N 65°58' E 012°27'5 9.6
2018-May-24 22:00N 66°02' E 012°34'5 9.9
2018-May-24 21:30N 66°06' E 012°42'510.0
2018-May-24 21:00N 66°09' E 012°49'510.0
2018-May-24 20:30N 66°14' E 012°53'510.6
2018-May-24 20:00N 66°19' E 012°56'510.2
2018-May-24 19:30N 66°24' E 012°58'5 9.9
2018-May-24 19:01N 66°29' E 012°59'5 9.0
2018-May-24 18:30N 66°33' E 013°03'510.1
2018-May-24 17:59N 66°39' E 013°05'510.5
2018-May-24 17:30N 66°43' E 013°10'510.3
2018-May-24 17:00N 66°48' E 013°15'5 9.9
2018-May-24 16:30N 66°52' E 013°21'5 9.6
2018-May-24 16:00N 66°56' E 013°29'5 9.2
2018-May-24 15:30N 66°60' E 013°37'510.4
2018-May-24 15:00N 67°02' E 013°48'510.5
2018-May-24 14:30N 67°06' E 013°58'510.5
2018-May-24 14:00N 67°11' E 014°03'510.7
2018-May-24 13:30N 67°16' E 014°07'44 9.7
2018-May-24 09:00N 67°57' E 014°45'4 8.8
2018-May-24 08:30N 67°60' E 014°54'4 8.6
2018-May-24 08:00N 68°03' E 015°02'4 8.6
2018-May-24 07:30N 68°06' E 015°11'4 8.6
2018-May-24 07:00N 68°08' E 015°20'4 8.7
2018-May-24 06:30N 68°11' E 015°29'4 8.8
2018-May-24 06:00N 68°14' E 015°38'4 9.0
2018-May-24 05:30N 68°17' E 015°46'5 8.7
2018-May-24 04:59N 68°21' E 015°55'4 8.8
2018-May-24 04:29N 68°24' E 016°01'4 9.0
2018-May-24 03:59N 68°28' E 016°06'4 8.8
2018-May-24 03:30N 68°32' E 016°12'4 8.8
2018-May-24 03:00N 68°34' E 016°23'4 7.9
2018-May-24 02:30N 68°35' E 016°33'4 9.0
2018-May-24 02:00N 68°40' E 016°38'4 8.8
2018-May-24 01:30N 68°43' E 016°44'4 8.7
2018-May-24 01:00N 68°47' E 016°50'4 8.5
2018-May-24 00:29N 68°51' E 016°56'4 8.6
2018-May-24 00:00N 68°54' E 017°03'4 8.8
2018-May-23 23:30N 68°58' E 017°10'5 9.2
2018-May-23 23:00N 69°02' E 017°18'5 9.1
2018-May-23 22:30N 69°05' E 017°25'4 9.0
2018-May-23 22:00N 69°07' E 017°36'4 8.9
2018-May-23 21:30N 69°09' E 017°48'5 9.2
2018-May-23 21:00N 69°11' E 017°60'3 6.9
2018-May-23 20:30N 69°14' E 017°59'0 0.1
2018-May-23 19:59N 69°14' E 017°59'0 0.0
2018-May-23 19:29N 69°14' E 017°59'2 3.9
2018-May-23 19:00N 69°16' E 017°58'4 8.3
2018-May-23 18:30N 69°20' E 018°03'4 8.3
2018-May-23 18:00N 69°24' E 018°06'4 7.9
2018-May-23 17:30N 69°28' E 018°08'5 8.9
2018-May-23 16:59N 69°30' E 018°19'4 8.9
2018-May-23 16:30N 69°32' E 018°31'4 8.6
2018-May-23 16:00N 69°33' E 018°42'510.3
2018-May-23 15:30N 69°37' E 018°54'3 6.8
2018-May-23 15:00N 69°40' E 018°58'0 0.0
2018-May-23 14:30N 69°40' E 018°58'0 0.0
2018-May-23 14:00N 69°40' E 018°58'0 0.0
2018-May-23 13:30N 69°40' E 018°58'0 0.8
2018-May-23 13:00N 69°40' E 018°59'1 1.2
2018-May-23 12:30N 69°40' E 018°59'0 0.0
2018-May-23 12:00N 69°40' E 018°59'0 0.0
2018-May-23 11:30N 69°40' E 018°59'0 0.0
2018-May-23 11:00N 69°40' E 018°59'0 0.0
2018-May-23 10:30N 69°40' E 018°59'0 0.0
2018-May-23 10:00N 69°40' E 018°59'0 0.0
2018-May-23 09:30N 69°40' E 018°59'0 0.0
2018-May-23 09:00N 69°40' E 018°59'0 0.0
2018-May-23 08:30N 69°40' E 018°59'0 0.0
2018-May-23 08:00N 69°40' E 018°59'0 0.0
2018-May-23 07:30N 69°40' E 018°59'0 0.0
2018-May-23 07:00N 69°40' E 018°59'0 0.0
2018-May-23 06:30N 69°40' E 018°59'0 0.0
2018-May-23 06:00N 69°40' E 018°59'0 0.0
2018-May-23 05:30N 69°40' E 018°59'0 0.0
2018-May-23 05:00N 69°40' E 018°59'0 0.0
2018-May-23 04:30N 69°40' E 018°59'0 0.0
2018-May-23 04:00N 69°40' E 018°59'0 0.0
2018-May-23 03:30N 69°40' E 018°59'0 0.0
2018-May-23 03:00N 69°40' E 018°59'0 0.0
2018-May-23 02:30N 69°40' E 018°59'0 0.0
2018-May-23 02:00N 69°40' E 018°59'0 0.0
2018-May-23 01:29N 69°40' E 018°59'0 0.0
2018-May-23 01:00N 69°40' E 018°59'0 0.0
2018-May-23 00:30N 69°40' E 018°59'0 0.0
2018-May-23 00:00N 69°40' E 018°59'0 0.0
2018-May-22 23:30N 69°40' E 018°59'0 0.0
2018-May-22 23:00N 69°40' E 018°59'0 0.0
2018-May-22 22:30N 69°40' E 018°59'0 0.0
2018-May-22 22:00N 69°40' E 018°59'0 0.0
2018-May-22 21:30N 69°40' E 018°59'0 0.0
2018-May-22 21:00N 69°40' E 018°59'0 0.0
2018-May-22 20:30N 69°40' E 018°59'0 0.0
2018-May-22 20:00N 69°40' E 018°59'0 0.0
2018-May-22 19:30N 69°40' E 018°59'0 0.0
2018-May-22 19:00N 69°40' E 018°59'0 0.0
2018-May-22 18:30N 69°40' E 018°59'0 0.0
2018-May-22 18:00N 69°40' E 018°59'0 0.0
2018-May-22 17:30N 69°40' E 018°59'0 0.0
2018-May-22 17:00N 69°40' E 018°59'0 0.0
2018-May-22 16:30N 69°40' E 018°59'0 0.0
2018-May-22 16:00N 69°40' E 018°59'0 0.0
2018-May-22 15:30N 69°40' E 018°59'0 0.0
2018-May-22 15:00N 69°40' E 018°59'0 0.0
2018-May-22 14:30N 69°40' E 018°59'0 0.0
2018-May-22 14:00N 69°40' E 018°59'0 0.0
2018-May-22 13:30N 69°40' E 018°59'0 0.0
2018-May-22 13:00N 69°40' E 018°59'0 0.0
2018-May-22 12:29N 69°40' E 018°59'0 0.0
2018-May-22 12:00N 69°40' E 018°59'0 0.0
2018-May-22 11:29N 69°40' E 018°59'0 0.0
2018-May-22 11:00N 69°40' E 018°59'0 0.0
2018-May-22 10:29N 69°40' E 018°59'0 0.0
2018-May-22 10:00N 69°40' E 018°59'0 0.0
2018-May-22 09:30N 69°40' E 018°59'0 0.0
2018-May-22 09:00N 69°40' E 018°59'0 0.0
2018-May-22 08:30N 69°40' E 018°59'0 0.0
2018-May-22 08:00N 69°40' E 018°59'0 0.0
2018-May-22 07:30N 69°40' E 018°59'0 0.0
2018-May-22 07:00N 69°40' E 018°59'0 0.0
2018-May-22 06:30N 69°40' E 018°59'0 0.0
2018-May-22 06:00N 69°40' E 018°59'0 0.0
2018-May-22 05:30N 69°40' E 018°59'0 0.0
2018-May-22 05:00N 69°40' E 018°59'0 0.0
2018-May-22 04:30N 69°40' E 018°59'0 0.0
2018-May-22 04:00N 69°40' E 018°59'0 0.0
2018-May-22 03:30N 69°40' E 018°59'0 0.0
2018-May-22 03:00N 69°40' E 018°59'0 0.0
2018-May-22 02:30N 69°40' E 018°59'0 0.0
2018-May-22 01:59N 69°40' E 018°59'0 0.0
2018-May-22 01:30N 69°40' E 018°59'0 0.0
2018-May-22 01:00N 69°40' E 018°59'0 0.0
2018-May-22 00:30N 69°40' E 018°59'0 0.0
2018-May-22 00:00N 69°40' E 018°59'0 0.0
2018-May-21 23:30N 69°40' E 018°59'0 0.0
2018-May-21 23:00N 69°40' E 018°59'0 0.0
2018-May-21 22:30N 69°40' E 018°59'0 0.0
2018-May-21 22:00N 69°40' E 018°59'0 0.0
2018-May-21 21:30N 69°40' E 018°59'0 0.0
2018-May-21 21:00N 69°40' E 018°59'0 0.0
2018-May-21 20:30N 69°40' E 018°59'0 0.0
2018-May-21 20:00N 69°40' E 018°59'0 0.0
2018-May-21 19:30N 69°40' E 018°59'0 0.0
2018-May-21 19:00N 69°40' E 018°59'0 0.0
2018-May-21 18:30N 69°40' E 018°59'0 0.0
2018-May-21 18:00N 69°40' E 018°59'0 0.0
2018-May-21 17:30N 69°40' E 018°59'0 0.0
2018-May-21 17:00N 69°40' E 018°59'0 0.0
2018-May-21 16:30N 69°40' E 018°59'0 0.0
2018-May-21 16:00N 69°40' E 018°59'0 0.0
2018-May-21 15:30N 69°40' E 018°59'0 0.0
2018-May-21 15:00N 69°40' E 018°59'0 0.0
2018-May-21 14:29N 69°40' E 018°59'0 0.0
2018-May-21 14:00N 69°40' E 018°59'0 0.0
2018-May-21 13:30N 69°40' E 018°59'0 0.0
2018-May-21 13:00N 69°40' E 018°59'0 0.0
2018-May-21 12:30N 69°40' E 018°59'0 0.0
2018-May-21 12:00N 69°40' E 018°59'0 0.0
2018-May-21 11:30N 69°40' E 018°59'0 0.0
2018-May-21 11:00N 69°40' E 018°59'0 0.0
2018-May-21 10:30N 69°40' E 018°59'0 0.0
2018-May-21 10:00N 69°40' E 018°59'0 0.0
2018-May-21 09:30N 69°40' E 018°59'0 0.0
2018-May-21 09:00N 69°40' E 018°59'0 0.0
2018-May-21 08:30N 69°40' E 018°59'0 0.0
2018-May-21 08:00N 69°40' E 018°59'0 0.0
2018-May-21 07:30N 69°40' E 018°59'0 0.0
2018-May-21 07:00N 69°40' E 018°59'0 0.0
2018-May-21 06:30N 69°40' E 018°59'0 0.0
2018-May-21 06:00N 69°40' E 018°59'0 0.0
2018-May-21 05:30N 69°40' E 018°59'0 0.0
2018-May-21 05:00N 69°40' E 018°59'0 0.0
2018-May-21 04:30N 69°40' E 018°59'0 0.0
2018-May-21 04:00N 69°40' E 018°59'0 0.0
2018-May-21 03:30N 69°40' E 018°59'0 0.0
2018-May-21 03:00N 69°40' E 018°59'0 0.0
2018-May-21 02:30N 69°40' E 018°59'0 0.0
2018-May-21 01:59N 69°40' E 018°59'0 0.0
2018-May-21 01:30N 69°40' E 018°59'0 0.0
2018-May-21 01:00N 69°40' E 018°59'0 0.0
2018-May-21 00:30N 69°40' E 018°59'0 0.0
2018-May-21 00:00N 69°40' E 018°59'0 0.0
2018-May-20 23:30N 69°40' E 018°59'0 0.0
2018-May-20 23:00N 69°40' E 018°59'0 0.0
2018-May-20 22:30N 69°40' E 018°59'0 0.0
2018-May-20 22:00N 69°40' E 018°59'0 0.0
2018-May-20 21:30N 69°40' E 018°59'0 0.0
2018-May-20 21:00N 69°40' E 018°59'0 0.0
2018-May-20 20:30N 69°40' E 018°59'0 0.0
2018-May-20 20:00N 69°40' E 018°59'0 0.0
2018-May-20 19:30N 69°40' E 018°59'0 0.0
2018-May-20 19:00N 69°40' E 018°59'0 0.0
2018-May-20 18:30N 69°40' E 018°59'0 0.0
2018-May-20 18:00N 69°40' E 018°59'0 0.0
2018-May-20 17:30N 69°40' E 018°59'0 0.0
2018-May-20 16:59N 69°40' E 018°59'0 0.0
2018-May-20 16:30N 69°40' E 018°59'0 0.0
2018-May-20 16:00N 69°40' E 018°59'0 0.0
2018-May-20 15:30N 69°40' E 018°59'0 0.0
2018-May-20 15:00N 69°40' E 018°59'0 0.0
2018-May-20 14:30N 69°40' E 018°59'0 0.0
2018-May-20 14:00N 69°40' E 018°59'0 0.0
2018-May-20 13:30N 69°40' E 018°59'0 0.0
2018-May-20 13:00N 69°40' E 018°59'0 0.0
2018-May-20 12:30N 69°40' E 018°59'0 0.0
2018-May-20 12:00N 69°40' E 018°59'0 0.0
2018-May-20 11:30N 69°40' E 018°59'0 0.0
2018-May-20 11:00N 69°40' E 018°59'0 0.0
2018-May-20 10:30N 69°40' E 018°59'0 0.0
2018-May-20 10:00N 69°40' E 018°59'0 0.0
2018-May-20 09:30N 69°40' E 018°59'0 0.0
2018-May-20 08:59N 69°40' E 018°59'0 0.0
2018-May-20 08:30N 69°40' E 018°59'0 0.0
2018-May-20 08:00N 69°40' E 018°59'0 0.0
2018-May-20 07:30N 69°40' E 018°59'0 0.0
2018-May-20 07:00N 69°40' E 018°59'0 0.0
2018-May-20 06:30N 69°40' E 018°59'0 0.0
2018-May-20 06:00N 69°40' E 018°59'0 0.0
2018-May-20 05:30N 69°40' E 018°59'0 0.0
2018-May-20 05:00N 69°40' E 018°59'0 0.0
2018-May-20 04:30N 69°40' E 018°59'0 0.0
2018-May-20 04:00N 69°40' E 018°59'0 0.0
2018-May-20 03:30N 69°40' E 018°59'0 0.0
2018-May-20 03:00N 69°40' E 018°59'0 0.0
2018-May-20 02:30N 69°40' E 018°59'0 0.0
2018-May-20 02:00N 69°40' E 018°59'0 0.0
2018-May-20 01:30N 69°40' E 018°59'0 0.0
2018-May-20 01:00N 69°40' E 018°59'0 0.0
2018-May-20 00:30N 69°40' E 018°59'0 0.0
2018-May-20 00:00N 69°40' E 018°59'0 0.0
2018-May-19 23:30N 69°40' E 018°59'0 0.0
2018-May-19 23:00N 69°40' E 018°59'0 0.0
2018-May-19 22:30N 69°40' E 018°59'0 0.0
2018-May-19 22:01N 69°40' E 018°59'0 0.0
2018-May-19 21:30N 69°40' E 018°59'0 0.0
2018-May-19 21:00N 69°40' E 018°59'0 0.0
2018-May-19 20:30N 69°40' E 018°59'0 0.0
2018-May-19 20:00N 69°40' E 018°59'0 0.0
2018-May-19 19:29N 69°40' E 018°59'0 0.0
2018-May-19 19:00N 69°40' E 018°59'0 0.0
2018-May-19 18:30N 69°40' E 018°59'0 0.0
2018-May-19 18:00N 69°40' E 018°59'0 0.0
2018-May-19 17:29N 69°40' E 018°59'0 0.0
2018-May-19 17:00N 69°40' E 018°59'0 0.0
2018-May-19 16:30N 69°40' E 018°59'0 0.0
2018-May-19 16:01N 69°40' E 018°59'0 0.0
2018-May-19 15:30N 69°40' E 018°59'0 0.0
2018-May-19 15:00N 69°40' E 018°59'0 0.0
2018-May-19 14:30N 69°40' E 018°59'0 0.0
2018-May-19 14:00N 69°40' E 018°59'0 0.0
2018-May-19 13:30N 69°40' E 018°59'0 0.0
2018-May-19 13:00N 69°40' E 018°59'0 0.0
2018-May-19 12:30N 69°40' E 018°59'0 0.0
2018-May-19 12:00N 69°40' E 018°59'0 0.0
2018-May-19 11:30N 69°40' E 018°59'0 0.0
2018-May-19 11:00N 69°40' E 018°59'0 0.0
2018-May-19 10:30N 69°40' E 018°59'0 0.0
2018-May-19 10:00N 69°40' E 018°59'0 0.0
2018-May-19 09:30N 69°40' E 018°59'0 0.0
2018-May-19 09:00N 69°40' E 018°59'0 0.0
2018-May-19 08:30N 69°40' E 018°59'0 0.0
2018-May-19 08:00N 69°40' E 018°59'0 0.0
2018-May-19 07:30N 69°40' E 018°59'0 0.0
2018-May-19 07:00N 69°40' E 018°59'0 0.0
2018-May-19 06:30N 69°40' E 018°59'0 0.0
2018-May-19 06:00N 69°40' E 018°59'0 0.0
2018-May-19 05:30N 69°40' E 018°59'0 0.0
2018-May-19 05:00N 69°40' E 018°59'0 0.0
2018-May-19 04:30N 69°40' E 018°59'0 0.0
2018-May-19 04:00N 69°40' E 018°59'0 0.0
2018-May-19 03:31N 69°40' E 018°59'0 0.0
2018-May-19 03:00N 69°40' E 018°59'0 0.0
2018-May-19 02:30N 69°40' E 018°59'0 0.0
2018-May-19 02:00N 69°40' E 018°59'0 0.0
2018-May-19 01:30N 69°40' E 018°59'0 0.0
2018-May-19 01:00N 69°40' E 018°59'0 0.0
2018-May-19 00:30N 69°40' E 018°59'0 0.0
2018-May-19 00:00N 69°40' E 018°59'0 0.0
2018-May-18 23:30N 69°40' E 018°59'0 0.0
2018-May-18 23:00N 69°40' E 018°59'0 0.0
2018-May-18 22:30N 69°40' E 018°59'0 0.0
2018-May-18 22:00N 69°40' E 018°59'0 0.0
2018-May-18 21:30N 69°40' E 018°59'0 0.0
2018-May-18 21:00N 69°40' E 018°59'0 0.0
2018-May-18 20:30N 69°40' E 018°59'0 0.0
2018-May-18 20:00N 69°40' E 018°59'0 0.0
2018-May-18 19:30N 69°40' E 018°59'0 0.0
2018-May-18 19:00N 69°40' E 018°59'0 0.0
2018-May-18 18:30N 69°40' E 018°59'0 0.0
2018-May-18 18:00N 69°40' E 018°59'0 0.0
2018-May-18 17:30N 69°40' E 018°59'0 0.0
2018-May-18 17:00N 69°40' E 018°59'0 0.0
2018-May-18 16:30N 69°40' E 018°59'0 0.0
2018-May-18 16:00N 69°40' E 018°59'0 0.0
2018-May-18 15:30N 69°40' E 018°59'0 0.0
2018-May-18 15:00N 69°40' E 018°59'0 0.0
2018-May-18 14:30N 69°40' E 018°59'0 0.0
2018-May-18 14:00N 69°40' E 018°59'0 0.0
2018-May-18 13:30N 69°40' E 018°59'0 0.0
2018-May-18 13:00N 69°40' E 018°59'0 0.0
2018-May-18 12:30N 69°40' E 018°59'0 0.0
2018-May-18 12:00N 69°40' E 018°59'0 0.0
2018-May-18 11:30N 69°40' E 018°59'0 0.0
2018-May-18 11:01N 69°40' E 018°59'0 0.0
2018-May-18 10:30N 69°40' E 018°59'0 0.0
2018-May-18 10:00N 69°40' E 018°59'0 0.0
2018-May-18 09:30N 69°40' E 018°59'0 0.0
2018-May-18 09:00N 69°40' E 018°59'0 0.0
2018-May-18 08:30N 69°40' E 018°59'0 0.0
2018-May-18 07:59N 69°40' E 018°59'0 0.0
2018-May-18 07:30N 69°40' E 018°59'0 0.0
2018-May-18 07:00N 69°40' E 018°59'0 0.0
2018-May-18 06:30N 69°40' E 018°59'0 0.0
2018-May-18 06:00N 69°40' E 018°59'0 0.0
2018-May-18 05:30N 69°40' E 018°59'0 0.0
2018-May-18 05:00N 69°40' E 018°59'0 0.0
2018-May-18 04:30N 69°40' E 018°59'0 0.0
2018-May-18 04:00N 69°40' E 018°59'0 0.0
2018-May-18 03:30N 69°40' E 018°59'0 0.0
2018-May-18 03:00N 69°40' E 018°59'0 0.0
2018-May-18 02:29N 69°40' E 018°59'0 0.0
2018-May-18 02:00N 69°40' E 018°59'0 0.0
2018-May-18 01:30N 69°40' E 018°59'0 0.0
2018-May-18 01:00N 69°40' E 018°59'0 0.0
2018-May-18 00:30N 69°40' E 018°59'0 0.0
2018-May-18 00:00N 69°40' E 018°59'0 0.0
2018-May-17 23:30N 69°40' E 018°59'0 0.0
2018-May-17 23:00N 69°40' E 018°59'0 0.0
2018-May-17 22:30N 69°40' E 018°59'0 0.0
2018-May-17 22:00N 69°40' E 018°59'0 0.0
2018-May-17 21:30N 69°40' E 018°59'0 0.0
2018-May-17 21:00N 69°40' E 018°59'0 0.0
2018-May-17 20:30N 69°40' E 018°59'0 0.0
2018-May-17 20:00N 69°40' E 018°59'0 0.0
2018-May-17 19:30N 69°40' E 018°59'0 0.0
2018-May-17 19:00N 69°40' E 018°59'0 0.0
2018-May-17 18:30N 69°40' E 018°59'0 0.0
2018-May-17 17:59N 69°40' E 018°59'0 0.0
2018-May-17 17:30N 69°40' E 018°59'0 0.0
2018-May-17 17:00N 69°40' E 018°59'0 0.0
2018-May-17 16:30N 69°40' E 018°59'0 0.0
2018-May-17 16:00N 69°40' E 018°59'0 0.0
2018-May-17 15:30N 69°40' E 018°59'0 0.0
2018-May-17 15:00N 69°40' E 018°59'0 0.0
2018-May-17 14:30N 69°40' E 018°59'0 0.0
2018-May-17 14:00N 69°40' E 018°59'0 0.0
2018-May-17 13:30N 69°40' E 018°59'0 0.0
2018-May-17 13:00N 69°40' E 018°59'0 0.0
2018-May-17 12:30N 69°40' E 018°59'0 0.0
2018-May-17 12:00N 69°40' E 018°59'0 0.0
2018-May-17 11:30N 69°40' E 018°59'0 0.0
2018-May-17 11:00N 69°40' E 018°59'0 0.0
2018-May-17 10:30N 69°40' E 018°59'0 0.0
2018-May-17 09:58N 69°40' E 018°59'0 0.0
2018-May-17 09:30N 69°40' E 018°59'0 0.0
2018-May-17 09:00N 69°40' E 018°59'0 0.0
2018-May-17 08:30N 69°40' E 018°59'0 0.0
2018-May-17 08:00N 69°40' E 018°59'0 0.0
2018-May-17 07:30N 69°40' E 018°59'0 0.0
2018-May-17 07:00N 69°40' E 018°59'0 0.0
2018-May-17 06:30N 69°40' E 018°59'0 0.0
2018-May-17 06:00N 69°40' E 018°59'0 0.0
2018-May-17 05:30N 69°40' E 018°59'0 0.0
2018-May-17 05:00N 69°40' E 018°59'0 0.0
2018-May-17 04:30N 69°40' E 018°59'0 0.0
2018-May-17 04:00N 69°40' E 018°59'0 0.0
2018-May-17 03:30N 69°40' E 018°59'0 0.0
2018-May-17 03:00N 69°40' E 018°59'0 0.0
2018-May-17 02:30N 69°40' E 018°59'0 0.0
2018-May-17 02:00N 69°40' E 018°59'0 0.0
2018-May-17 01:30N 69°40' E 018°59'0 0.0
2018-May-17 01:00N 69°40' E 018°59'0 0.0
2018-May-17 00:30N 69°40' E 018°59'0 0.0
2018-May-17 00:00N 69°40' E 018°59'0 0.0
2018-May-16 23:30N 69°40' E 018°59'0 0.0
2018-May-16 23:00N 69°40' E 018°59'0 0.0
2018-May-16 22:30N 69°40' E 018°59'0 0.0
2018-May-16 22:00N 69°40' E 018°59'0 0.0
2018-May-16 21:30N 69°40' E 018°59'0 0.0
2018-May-16 21:00N 69°40' E 018°59'0 0.0
2018-May-16 20:30N 69°40' E 018°59'0 0.0
2018-May-16 20:00N 69°40' E 018°59'0 0.0
2018-May-16 19:30N 69°40' E 018°59'0 0.0
2018-May-16 18:59N 69°40' E 018°59'0 0.0
2018-May-16 18:30N 69°40' E 018°59'0 0.0
2018-May-16 18:00N 69°40' E 018°59'0 0.0
2018-May-16 17:30N 69°40' E 018°59'0 0.0
2018-May-16 17:00N 69°40' E 018°59'0 0.0
2018-May-16 16:29N 69°40' E 018°59'0 0.0
2018-May-16 16:00N 69°40' E 018°59'0 0.0
2018-May-16 15:30N 69°40' E 018°59'0 0.0
2018-May-16 15:00N 69°40' E 018°59'0 0.0
2018-May-16 14:30N 69°40' E 018°59'0 0.0
2018-May-16 14:00N 69°40' E 018°59'0 0.0
2018-May-16 13:30N 69°40' E 018°59'0 0.0
2018-May-16 13:00N 69°40' E 018°59'0 0.0
2018-May-16 12:30N 69°40' E 018°59'0 0.0
2018-May-16 12:00N 69°40' E 018°59'0 0.0
2018-May-16 11:29N 69°40' E 018°59'0 0.0
2018-May-16 11:00N 69°40' E 018°59'0 0.0
2018-May-16 10:30N 69°40' E 018°59'0 0.0
2018-May-16 10:00N 69°40' E 018°59'0 0.0
2018-May-16 09:30N 69°40' E 018°59'0 0.0
2018-May-16 09:00N 69°40' E 018°59'0 0.0
2018-May-16 08:30N 69°40' E 018°59'0 0.0
2018-May-16 08:00N 69°40' E 018°59'0 0.0
2018-May-16 07:30N 69°40' E 018°59'0 0.0
2018-May-16 07:00N 69°40' E 018°59'0 0.0
2018-May-16 06:30N 69°40' E 018°59'0 0.0
2018-May-16 06:00N 69°40' E 018°59'0 0.0
2018-May-16 05:30N 69°40' E 018°59'0 0.0
2018-May-16 05:00N 69°40' E 018°59'0 0.0
2018-May-16 04:29N 69°40' E 018°59'0 0.0
2018-May-16 04:00N 69°40' E 018°59'0 0.0
2018-May-16 03:30N 69°40' E 018°59'0 0.0
2018-May-16 03:00N 69°40' E 018°59'0 0.0
2018-May-16 02:30N 69°40' E 018°59'0 0.0
2018-May-16 02:00N 69°40' E 018°59'0 0.0
2018-May-16 01:30N 69°40' E 018°59'0 0.0
2018-May-16 01:00N 69°40' E 018°59'0 0.0
2018-May-16 00:30N 69°40' E 018°59'0 0.0
2018-May-16 00:00N 69°40' E 018°59'0 0.0
2018-May-15 23:29N 69°40' E 018°59'0 0.0
2018-May-15 23:00N 69°40' E 018°59'0 0.0
2018-May-15 22:30N 69°40' E 018°59'0 0.0
2018-May-15 22:00N 69°40' E 018°59'0 0.0
2018-May-15 21:30N 69°40' E 018°59'0 0.0
2018-May-15 21:00N 69°40' E 018°59'0 0.0
2018-May-15 20:30N 69°40' E 018°59'0 0.0
2018-May-15 20:00N 69°40' E 018°59'0 0.0
2018-May-15 19:30N 69°40' E 018°59'0 0.0
2018-May-15 19:00N 69°40' E 018°59'0 0.0
2018-May-15 18:30N 69°40' E 018°59'0 0.0
2018-May-15 18:00N 69°40' E 018°59'0 0.0
2018-May-15 17:30N 69°40' E 018°59'0 0.0
2018-May-15 17:00N 69°40' E 018°59'0 0.0
2018-May-15 16:30N 69°40' E 018°59'0 0.0
2018-May-15 16:00N 69°40' E 018°59'0 0.0
2018-May-15 15:30N 69°40' E 018°59'0 0.0
2018-May-15 15:00N 69°40' E 018°59'0 0.0
2018-May-15 14:30N 69°40' E 018°59'0 0.0
2018-May-15 14:00N 69°40' E 018°59'0 0.0
2018-May-15 13:30N 69°40' E 018°59'0 0.0
2018-May-15 13:00N 69°40' E 018°59'0 0.0
2018-May-15 12:30N 69°40' E 018°59'0 0.0
2018-May-15 12:00N 69°40' E 018°59'0 0.0
2018-May-15 11:30N 69°40' E 018°59'0 0.0
2018-May-15 11:00N 69°40' E 018°59'0 0.0
2018-May-15 10:30N 69°40' E 018°59'0 0.0
2018-May-15 10:00N 69°40' E 018°59'0 0.0
2018-May-15 09:30N 69°40' E 018°59'0 0.0
2018-May-15 09:00N 69°40' E 018°59'0 0.0
2018-May-15 08:30N 69°40' E 018°59'0 0.0
2018-May-15 08:00N 69°40' E 018°59'0 0.0
2018-May-15 07:30N 69°40' E 018°59'0 0.0
2018-May-15 07:00N 69°40' E 018°59'0 0.0
2018-May-15 06:30N 69°40' E 018°59'0 0.0
2018-May-15 06:00N 69°40' E 018°59'0 0.0
2018-May-15 05:31N 69°40' E 018°59'0 0.0
2018-May-15 05:00N 69°40' E 018°59'0 0.0
2018-May-15 04:30N 69°40' E 018°59'0 0.0
2018-May-15 04:00N 69°40' E 018°59'0 0.0
2018-May-15 03:30N 69°40' E 018°59'0 0.0
2018-May-15 03:00N 69°40' E 018°59'0 0.0
2018-May-15 02:30N 69°40' E 018°59'0 0.0
2018-May-15 02:00N 69°40' E 018°59'0 0.0
2018-May-15 01:30N 69°40' E 018°59'0 0.0
2018-May-15 01:00N 69°40' E 018°59'0 0.0
2018-May-15 00:30N 69°40' E 018°59'  
Track history (hours):
 
Tides and Currents Weather Stations Pressure Air Temp Water Temp Dewpoint Dewpoint Depression Visibility Wind Speed Wind Dir Waves Ship Positions

Grimsholm

Last reported at 2018-May-25 01:00 UTC. Time now 2018-May-25 00:58 UTC.
Position N 65°34' E 012°13'.

Length 50 m; draft 7 m.

Type: Fishing. MMSI: 259465000.

Date/timePositionNaut miles runAvg speedWind from/ knotsBaromVisibWave heightAir tempDewpointWater temp
2018-May-25 01:00N 65°34' E 012°13'510.3
2018-May-25 00:29N 65°39' E 012°14'510.2
2018-May-25 00:00N 65°44' E 012°17'510.2
2018-May-24 23:30N 65°48' E 012°20'510.1
2018-May-24 23:00N 65°54' E 012°22'5 9.4
2018-May-24 22:29N 65°58' E 012°27'5 9.6
2018-May-24 22:00N 66°02' E 012°34'5 9.9
2018-May-24 21:30N 66°06' E 012°42'510.0
2018-May-24 21:00N 66°09' E 012°49'510.0
2018-May-24 20:30N 66°14' E 012°53'510.6
2018-May-24 20:00N 66°19' E 012°56'510.2
2018-May-24 19:30N 66°24' E 012°58'5 9.9
2018-May-24 19:01N 66°29' E 012°59'5 9.0
2018-May-24 18:30N 66°33' E 013°03'510.1
2018-May-24 17:59N 66°39' E 013°05'510.5
2018-May-24 17:30N 66°43' E 013°10'510.3
2018-May-24 17:00N 66°48' E 013°15'5 9.9
2018-May-24 16:30N 66°52' E 013°21'5 9.6
2018-May-24 16:00N 66°56' E 013°29'5 9.2
2018-May-24 15:30N 66°60' E 013°37'510.4
2018-May-24 15:00N 67°02' E 013°48'510.5
2018-May-24 14:30N 67°06' E 013°58'510.5
2018-May-24 14:00N 67°11' E 014°03'510.7
2018-May-24 13:30N 67°16' E 014°07'44 9.7
2018-May-24 09:00N 67°57' E 014°45'4 8.8
2018-May-24 08:30N 67°60' E 014°54'4 8.6
2018-May-24 08:00N 68°03' E 015°02'4 8.6
2018-May-24 07:30N 68°06' E 015°11'4 8.6
2018-May-24 07:00N 68°08' E 015°20'4 8.7
2018-May-24 06:30N 68°11' E 015°29'4 8.8
2018-May-24 06:00N 68°14' E 015°38'4 9.0
2018-May-24 05:30N 68°17' E 015°46'5 8.7
2018-May-24 04:59N 68°21' E 015°55'4 8.8
2018-May-24 04:29N 68°24' E 016°01'4 9.0
2018-May-24 03:59N 68°28' E 016°06'4 8.8
2018-May-24 03:30N 68°32' E 016°12'4 8.8
2018-May-24 03:00N 68°34' E 016°23'4 7.9
2018-May-24 02:30N 68°35' E 016°33'4 9.0
2018-May-24 02:00N 68°40' E 016°38'4 8.8
2018-May-24 01:30N 68°43' E 016°44'4 8.7
2018-May-24 01:00N 68°47' E 016°50'4 8.5
2018-May-24 00:29N 68°51' E 016°56'4 8.6
2018-May-24 00:00N 68°54' E 017°03'4 8.8
2018-May-23 23:30N 68°58' E 017°10'5 9.2
2018-May-23 23:00N 69°02' E 017°18'5 9.1
2018-May-23 22:30N 69°05' E 017°25'4 9.0
2018-May-23 22:00N 69°07' E 017°36'4 8.9
2018-May-23 21:30N 69°09' E 017°48'5 9.2
2018-May-23 21:00N 69°11' E 017°60'3 6.9
2018-May-23 20:30N 69°14' E 017°59'0 0.1
2018-May-23 19:59N 69°14' E 017°59'0 0.0
2018-May-23 19:29N 69°14' E 017°59'2 3.9
2018-May-23 19:00N 69°16' E 017°58'4 8.3
2018-May-23 18:30N 69°20' E 018°03'4 8.3
2018-May-23 18:00N 69°24' E 018°06'4 7.9
2018-May-23 17:30N 69°28' E 018°08'5 8.9
2018-May-23 16:59N 69°30' E 018°19'4 8.9
2018-May-23 16:30N 69°32' E 018°31'4 8.6
2018-May-23 16:00N 69°33' E 018°42'510.3
2018-May-23 15:30N 69°37' E 018°54'3 6.8
2018-May-23 15:00N 69°40' E 018°58'0 0.0
2018-May-23 14:30N 69°40' E 018°58'0 0.0
2018-May-23 14:00N 69°40' E 018°58'0 0.0
2018-May-23 13:30N 69°40' E 018°58'0 0.8
2018-May-23 13:00N 69°40' E 018°59'1 1.2
2018-May-23 12:30N 69°40' E 018°59'0 0.0
2018-May-23 12:00N 69°40' E 018°59'0 0.0
2018-May-23 11:30N 69°40' E 018°59'0 0.0
2018-May-23 11:00N 69°40' E 018°59'0 0.0
2018-May-23 10:30N 69°40' E 018°59'0 0.0
2018-May-23 10:00N 69°40' E 018°59'0 0.0
2018-May-23 09:30N 69°40' E 018°59'0 0.0
2018-May-23 09:00N 69°40' E 018°59'0 0.0
2018-May-23 08:30N 69°40' E 018°59'0 0.0
2018-May-23 08:00N 69°40' E 018°59'0 0.0
2018-May-23 07:30N 69°40' E 018°59'0 0.0
2018-May-23 07:00N 69°40' E 018°59'0 0.0
2018-May-23 06:30N 69°40' E 018°59'0 0.0
2018-May-23 06:00N 69°40' E 018°59'0 0.0
2018-May-23 05:30N 69°40' E 018°59'0 0.0
2018-May-23 05:00N 69°40' E 018°59'0 0.0
2018-May-23 04:30N 69°40' E 018°59'0 0.0
2018-May-23 04:00N 69°40' E 018°59'0 0.0
2018-May-23 03:30N 69°40' E 018°59'0 0.0
2018-May-23 03:00N 69°40' E 018°59'0 0.0
2018-May-23 02:30N 69°40' E 018°59'0 0.0
2018-May-23 02:00N 69°40' E 018°59'0 0.0
2018-May-23 01:29N 69°40' E 018°59'0 0.0
2018-May-23 01:00N 69°40' E 018°59'0 0.0
2018-May-23 00:30N 69°40' E 018°59'0 0.0
2018-May-23 00:00N 69°40' E 018°59'0 0.0
2018-May-22 23:30N 69°40' E 018°59'0 0.0
2018-May-22 23:00N 69°40' E 018°59'0 0.0
2018-May-22 22:30N 69°40' E 018°59'0 0.0
2018-May-22 22:00N 69°40' E 018°59'0 0.0
2018-May-22 21:30N 69°40' E 018°59'0 0.0
2018-May-22 21:00N 69°40' E 018°59'0 0.0
2018-May-22 20:30N 69°40' E 018°59'0 0.0
2018-May-22 20:00N 69°40' E 018°59'0 0.0
2018-May-22 19:30N 69°40' E 018°59'0 0.0
2018-May-22 19:00N 69°40' E 018°59'0 0.0
2018-May-22 18:30N 69°40' E 018°59'0 0.0
2018-May-22 18:00N 69°40' E 018°59'0 0.0
2018-May-22 17:30N 69°40' E 018°59'0 0.0
2018-May-22 17:00N 69°40' E 018°59'0 0.0
2018-May-22 16:30N 69°40' E 018°59'0 0.0
2018-May-22 16:00N 69°40' E 018°59'0 0.0
2018-May-22 15:30N 69°40' E 018°59'0 0.0
2018-May-22 15:00N 69°40' E 018°59'0 0.0
2018-May-22 14:30N 69°40' E 018°59'0 0.0
2018-May-22 14:00N 69°40' E 018°59'0 0.0
2018-May-22 13:30N 69°40' E 018°59'0 0.0
2018-May-22 13:00N 69°40' E 018°59'0 0.0
2018-May-22 12:29N 69°40' E 018°59'0 0.0
2018-May-22 12:00N 69°40' E 018°59'0 0.0
2018-May-22 11:29N 69°40' E 018°59'0 0.0
2018-May-22 11:00N 69°40' E 018°59'0 0.0
2018-May-22 10:29N 69°40' E 018°59'0 0.0
2018-May-22 10:00N 69°40' E 018°59'0 0.0
2018-May-22 09:30N 69°40' E 018°59'0 0.0
2018-May-22 09:00N 69°40' E 018°59'0 0.0
2018-May-22 08:30N 69°40' E 018°59'0 0.0
2018-May-22 08:00N 69°40' E 018°59'0 0.0
2018-May-22 07:30N 69°40' E 018°59'0 0.0
2018-May-22 07:00N 69°40' E 018°59'0 0.0
2018-May-22 06:30N 69°40' E 018°59'0 0.0
2018-May-22 06:00N 69°40' E 018°59'0 0.0
2018-May-22 05:30N 69°40' E 018°59'0 0.0
2018-May-22 05:00N 69°40' E 018°59'0 0.0
2018-May-22 04:30N 69°40' E 018°59'0 0.0
2018-May-22 04:00N 69°40' E 018°59'0 0.0
2018-May-22 03:30N 69°40' E 018°59'0 0.0
2018-May-22 03:00N 69°40' E 018°59'0 0.0
2018-May-22 02:30N 69°40' E 018°59'0 0.0
2018-May-22 01:59N 69°40' E 018°59'0 0.0
2018-May-22 01:30N 69°40' E 018°59'0 0.0
2018-May-22 01:00N 69°40' E 018°59'0 0.0
2018-May-22 00:30N 69°40' E 018°59'0 0.0
2018-May-22 00:00N 69°40' E 018°59'0 0.0
2018-May-21 23:30N 69°40' E 018°59'0 0.0
2018-May-21 23:00N 69°40' E 018°59'0 0.0
2018-May-21 22:30N 69°40' E 018°59'0 0.0
2018-May-21 22:00N 69°40' E 018°59'0 0.0
2018-May-21 21:30N 69°40' E 018°59'0 0.0
2018-May-21 21:00N 69°40' E 018°59'0 0.0
2018-May-21 20:30N 69°40' E 018°59'0 0.0
2018-May-21 20:00N 69°40' E 018°59'0 0.0
2018-May-21 19:30N 69°40' E 018°59'0 0.0
2018-May-21 19:00N 69°40' E 018°59'0 0.0
2018-May-21 18:30N 69°40' E 018°59'0 0.0
2018-May-21 18:00N 69°40' E 018°59'0 0.0
2018-May-21 17:30N 69°40' E 018°59'0 0.0
2018-May-21 17:00N 69°40' E 018°59'0 0.0
2018-May-21 16:30N 69°40' E 018°59'0 0.0
2018-May-21 16:00N 69°40' E 018°59'0 0.0
2018-May-21 15:30N 69°40' E 018°59'0 0.0
2018-May-21 15:00N 69°40' E 018°59'0 0.0
2018-May-21 14:29N 69°40' E 018°59'0 0.0
2018-May-21 14:00N 69°40' E 018°59'0 0.0
2018-May-21 13:30N 69°40' E 018°59'0 0.0
2018-May-21 13:00N 69°40' E 018°59'0 0.0
2018-May-21 12:30N 69°40' E 018°59'0 0.0
2018-May-21 12:00N 69°40' E 018°59'0 0.0
2018-May-21 11:30N 69°40' E 018°59'0 0.0
2018-May-21 11:00N 69°40' E 018°59'0 0.0
2018-May-21 10:30N 69°40' E 018°59'0 0.0
2018-May-21 10:00N 69°40' E 018°59'0 0.0
2018-May-21 09:30N 69°40' E 018°59'0 0.0
2018-May-21 09:00N 69°40' E 018°59'0 0.0
2018-May-21 08:30N 69°40' E 018°59'0 0.0
2018-May-21 08:00N 69°40' E 018°59'0 0.0
2018-May-21 07:30N 69°40' E 018°59'0 0.0
2018-May-21 07:00N 69°40' E 018°59'0 0.0
2018-May-21 06:30N 69°40' E 018°59'0 0.0
2018-May-21 06:00N 69°40' E 018°59'0 0.0
2018-May-21 05:30N 69°40' E 018°59'0 0.0
2018-May-21 05:00N 69°40' E 018°59'0 0.0
2018-May-21 04:30N 69°40' E 018°59'0 0.0
2018-May-21 04:00N 69°40' E 018°59'0 0.0
2018-May-21 03:30N 69°40' E 018°59'0 0.0
2018-May-21 03:00N 69°40' E 018°59'0 0.0
2018-May-21 02:30N 69°40' E 018°59'0 0.0
2018-May-21 01:59N 69°40' E 018°59'0 0.0
2018-May-21 01:30N 69°40' E 018°59'0 0.0
2018-May-21 01:00N 69°40' E 018°59'0 0.0
2018-May-21 00:30N 69°40' E 018°59'0 0.0
2018-May-21 00:00N 69°40' E 018°59'0 0.0
2018-May-20 23:30N 69°40' E 018°59'0 0.0
2018-May-20 23:00N 69°40' E 018°59'0 0.0
2018-May-20 22:30N 69°40' E 018°59'0 0.0
2018-May-20 22:00N 69°40' E 018°59'0 0.0
2018-May-20 21:30N 69°40' E 018°59'0 0.0
2018-May-20 21:00N 69°40' E 018°59'0 0.0
2018-May-20 20:30N 69°40' E 018°59'0 0.0
2018-May-20 20:00N 69°40' E 018°59'0 0.0
2018-May-20 19:30N 69°40' E 018°59'0 0.0
2018-May-20 19:00N 69°40' E 018°59'0 0.0
2018-May-20 18:30N 69°40' E 018°59'0 0.0
2018-May-20 18:00N 69°40' E 018°59'0 0.0
2018-May-20 17:30N 69°40' E 018°59'0 0.0
2018-May-20 16:59N 69°40' E 018°59'0 0.0
2018-May-20 16:30N 69°40' E 018°59'0 0.0
2018-May-20 16:00N 69°40' E 018°59'0 0.0
2018-May-20 15:30N 69°40' E 018°59'0 0.0
2018-May-20 15:00N 69°40' E 018°59'0 0.0
2018-May-20 14:30N 69°40' E 018°59'0 0.0
2018-May-20 14:00N 69°40' E 018°59'0 0.0
2018-May-20 13:30N 69°40' E 018°59'0 0.0
2018-May-20 13:00N 69°40' E 018°59'0 0.0
2018-May-20 12:30N 69°40' E 018°59'0 0.0
2018-May-20 12:00N 69°40' E 018°59'0 0.0
2018-May-20 11:30N 69°40' E 018°59'0 0.0
2018-May-20 11:00N 69°40' E 018°59'0 0.0
2018-May-20 10:30N 69°40' E 018°59'0 0.0
2018-May-20 10:00N 69°40' E 018°59'0 0.0
2018-May-20 09:30N 69°40' E 018°59'0 0.0
2018-May-20 08:59N 69°40' E 018°59'0 0.0
2018-May-20 08:30N 69°40' E 018°59'0 0.0
2018-May-20 08:00N 69°40' E 018°59'0 0.0
2018-May-20 07:30N 69°40' E 018°59'0 0.0
2018-May-20 07:00N 69°40' E 018°59'0 0.0
2018-May-20 06:30N 69°40' E 018°59'0 0.0
2018-May-20 06:00N 69°40' E 018°59'0 0.0
2018-May-20 05:30N 69°40' E 018°59'0 0.0
2018-May-20 05:00N 69°40' E 018°59'0 0.0
2018-May-20 04:30N 69°40' E 018°59'0 0.0
2018-May-20 04:00N 69°40' E 018°59'0 0.0
2018-May-20 03:30N 69°40' E 018°59'0 0.0
2018-May-20 03:00N 69°40' E 018°59'0 0.0
2018-May-20 02:30N 69°40' E 018°59'0 0.0
2018-May-20 02:00N 69°40' E 018°59'0 0.0
2018-May-20 01:30N 69°40' E 018°59'0 0.0
2018-May-20 01:00N 69°40' E 018°59'0 0.0
2018-May-20 00:30N 69°40' E 018°59'0 0.0
2018-May-20 00:00N 69°40' E 018°59'0 0.0
2018-May-19 23:30N 69°40' E 018°59'0 0.0
2018-May-19 23:00N 69°40' E 018°59'0 0.0
2018-May-19 22:30N 69°40' E 018°59'0 0.0
2018-May-19 22:01N 69°40' E 018°59'0 0.0
2018-May-19 21:30N 69°40' E 018°59'0 0.0
2018-May-19 21:00N 69°40' E 018°59'0 0.0
2018-May-19 20:30N 69°40' E 018°59'0 0.0
2018-May-19 20:00N 69°40' E 018°59'0 0.0
2018-May-19 19:29N 69°40' E 018°59'0 0.0
2018-May-19 19:00N 69°40' E 018°59'0 0.0
2018-May-19 18:30N 69°40' E 018°59'0 0.0
2018-May-19 18:00N 69°40' E 018°59'0 0.0
2018-May-19 17:29N 69°40' E 018°59'0 0.0
2018-May-19 17:00N 69°40' E 018°59'0 0.0
2018-May-19 16:30N 69°40' E 018°59'0 0.0
2018-May-19 16:01N 69°40' E 018°59'0 0.0
2018-May-19 15:30N 69°40' E 018°59'0 0.0
2018-May-19 15:00N 69°40' E 018°59'0 0.0
2018-May-19 14:30N 69°40' E 018°59'0 0.0
2018-May-19 14:00N 69°40' E 018°59'0 0.0
2018-May-19 13:30N 69°40' E 018°59'0 0.0
2018-May-19 13:00N 69°40' E 018°59'0 0.0
2018-May-19 12:30N 69°40' E 018°59'0 0.0
2018-May-19 12:00N 69°40' E 018°59'0 0.0
2018-May-19 11:30N 69°40' E 018°59'0 0.0
2018-May-19 11:00N 69°40' E 018°59'0 0.0
2018-May-19 10:30N 69°40' E 018°59'0 0.0
2018-May-19 10:00N 69°40' E 018°59'0 0.0
2018-May-19 09:30N 69°40' E 018°59'0 0.0
2018-May-19 09:00N 69°40' E 018°59'0 0.0
2018-May-19 08:30N 69°40' E 018°59'0 0.0
2018-May-19 08:00N 69°40' E 018°59'0 0.0
2018-May-19 07:30N 69°40' E 018°59'0 0.0
2018-May-19 07:00N 69°40' E 018°59'0 0.0
2018-May-19 06:30N 69°40' E 018°59'0 0.0
2018-May-19 06:00N 69°40' E 018°59'0 0.0
2018-May-19 05:30N 69°40' E 018°59'0 0.0
2018-May-19 05:00N 69°40' E 018°59'0 0.0
2018-May-19 04:30N 69°40' E 018°59'0 0.0
2018-May-19 04:00N 69°40' E 018°59'0 0.0
2018-May-19 03:31N 69°40' E 018°59'0 0.0
2018-May-19 03:00N 69°40' E 018°59'0 0.0
2018-May-19 02:30N 69°40' E 018°59'0 0.0
2018-May-19 02:00N 69°40' E 018°59'0 0.0
2018-May-19 01:30N 69°40' E 018°59'0 0.0
2018-May-19 01:00N 69°40' E 018°59'0 0.0
2018-May-19 00:30N 69°40' E 018°59'0 0.0
2018-May-19 00:00N 69°40' E 018°59'0 0.0
2018-May-18 23:30N 69°40' E 018°59'0 0.0
2018-May-18 23:00N 69°40' E 018°59'0 0.0
2018-May-18 22:30N 69°40' E 018°59'0 0.0
2018-May-18 22:00N 69°40' E 018°59'0 0.0
2018-May-18 21:30N 69°40' E 018°59'0 0.0
2018-May-18 21:00N 69°40' E 018°59'0 0.0
2018-May-18 20:30N 69°40' E 018°59'0 0.0
2018-May-18 20:00N 69°40' E 018°59'0 0.0
2018-May-18 19:30N 69°40' E 018°59'0 0.0
2018-May-18 19:00N 69°40' E 018°59'0 0.0
2018-May-18 18:30N 69°40' E 018°59'0 0.0
2018-May-18 18:00N 69°40' E 018°59'0 0.0
2018-May-18 17:30N 69°40' E 018°59'0 0.0
2018-May-18 17:00N 69°40' E 018°59'0 0.0
2018-May-18 16:30N 69°40' E 018°59'0 0.0
2018-May-18 16:00N 69°40' E 018°59'0 0.0
2018-May-18 15:30N 69°40' E 018°59'0 0.0
2018-May-18 15:00N 69°40' E 018°59'0 0.0
2018-May-18 14:30N 69°40' E 018°59'0 0.0
2018-May-18 14:00N 69°40' E 018°59'0 0.0
2018-May-18 13:30N 69°40' E 018°59'0 0.0
2018-May-18 13:00N 69°40' E 018°59'0 0.0
2018-May-18 12:30N 69°40' E 018°59'0 0.0
2018-May-18 12:00N 69°40' E 018°59'0 0.0
2018-May-18 11:30N 69°40' E 018°59'0 0.0
2018-May-18 11:01N 69°40' E 018°59'0 0.0
2018-May-18 10:30N 69°40' E 018°59'0 0.0
2018-May-18 10:00N 69°40' E 018°59'0 0.0
2018-May-18 09:30N 69°40' E 018°59'0 0.0
2018-May-18 09:00N 69°40' E 018°59'0 0.0
2018-May-18 08:30N 69°40' E 018°59'0 0.0
2018-May-18 07:59N 69°40' E 018°59'0 0.0
2018-May-18 07:30N 69°40' E 018°59'0 0.0
2018-May-18 07:00N 69°40' E 018°59'0 0.0
2018-May-18 06:30N 69°40' E 018°59'0 0.0
2018-May-18 06:00N 69°40' E 018°59'0 0.0
2018-May-18 05:30N 69°40' E 018°59'0 0.0
2018-May-18 05:00N 69°40' E 018°59'0 0.0
2018-May-18 04:30N 69°40' E 018°59'0 0.0
2018-May-18 04:00N 69°40' E 018°59'0 0.0
2018-May-18 03:30N 69°40' E 018°59'0 0.0
2018-May-18 03:00N 69°40' E 018°59'0 0.0
2018-May-18 02:29N 69°40' E 018°59'0 0.0
2018-May-18 02:00N 69°40' E 018°59'0 0.0
2018-May-18 01:30N 69°40' E 018°59'0 0.0
2018-May-18 01:00N 69°40' E 018°59'0 0.0
2018-May-18 00:30N 69°40' E 018°59'0 0.0
2018-May-18 00:00N 69°40' E 018°59'0 0.0
2018-May-17 23:30N 69°40' E 018°59'0 0.0
2018-May-17 23:00N 69°40' E 018°59'0 0.0
2018-May-17 22:30N 69°40' E 018°59'0 0.0
2018-May-17 22:00N 69°40' E 018°59'0 0.0
2018-May-17 21:30N 69°40' E 018°59'0 0.0
2018-May-17 21:00N 69°40' E 018°59'0 0.0
2018-May-17 20:30N 69°40' E 018°59'0 0.0
2018-May-17 20:00N 69°40' E 018°59'0 0.0
2018-May-17 19:30N 69°40' E 018°59'0 0.0
2018-May-17 19:00N 69°40' E 018°59'0 0.0
2018-May-17 18:30N 69°40' E 018°59'0 0.0
2018-May-17 17:59N 69°40' E 018°59'0 0.0
2018-May-17 17:30N 69°40' E 018°59'0 0.0
2018-May-17 17:00N 69°40' E 018°59'0 0.0
2018-May-17 16:30N 69°40' E 018°59'0 0.0
2018-May-17 16:00N 69°40' E 018°59'0 0.0
2018-May-17 15:30N 69°40' E 018°59'0 0.0
2018-May-17 15:00N 69°40' E 018°59'0 0.0
2018-May-17 14:30N 69°40' E 018°59'0 0.0
2018-May-17 14:00N 69°40' E 018°59'0 0.0
2018-May-17 13:30N 69°40' E 018°59'0 0.0
2018-May-17 13:00N 69°40' E 018°59'0 0.0
2018-May-17 12:30N 69°40' E 018°59'0 0.0
2018-May-17 12:00N 69°40' E 018°59'0 0.0
2018-May-17 11:30N 69°40' E 018°59'0 0.0
2018-May-17 11:00N 69°40' E 018°59'0 0.0
2018-May-17 10:30N 69°40' E 018°59'0 0.0
2018-May-17 09:58N 69°40' E 018°59'0 0.0
2018-May-17 09:30N 69°40' E 018°59'0 0.0
2018-May-17 09:00N 69°40' E 018°59'0 0.0
2018-May-17 08:30N 69°40' E 018°59'0 0.0
2018-May-17 08:00N 69°40' E 018°59'0 0.0
2018-May-17 07:30N 69°40' E 018°59'0 0.0
2018-May-17 07:00N 69°40' E 018°59'0 0.0
2018-May-17 06:30N 69°40' E 018°59'0 0.0
2018-May-17 06:00N 69°40' E 018°59'0 0.0
2018-May-17 05:30N 69°40' E 018°59'0 0.0
2018-May-17 05:00N 69°40' E 018°59'0 0.0
2018-May-17 04:30N 69°40' E 018°59'0 0.0
2018-May-17 04:00N 69°40' E 018°59'0 0.0
2018-May-17 03:30N 69°40' E 018°59'0 0.0
2018-May-17 03:00N 69°40' E 018°59'0 0.0
2018-May-17 02:30N 69°40' E 018°59'0 0.0
2018-May-17 02:00N 69°40' E 018°59'0 0.0
2018-May-17 01:30N 69°40' E 018°59'0 0.0
2018-May-17 01:00N 69°40' E 018°59'0 0.0
2018-May-17 00:30N 69°40' E 018°59'0 0.0
2018-May-17 00:00N 69°40' E 018°59'0 0.0
2018-May-16 23:30N 69°40' E 018°59'0 0.0
2018-May-16 23:00N 69°40' E 018°59'0 0.0
2018-May-16 22:30N 69°40' E 018°59'0 0.0
2018-May-16 22:00N 69°40' E 018°59'0 0.0
2018-May-16 21:30N 69°40' E 018°59'0 0.0
2018-May-16 21:00N 69°40' E 018°59'0 0.0
2018-May-16 20:30N 69°40' E 018°59'0 0.0
2018-May-16 20:00N 69°40' E 018°59'0 0.0
2018-May-16 19:30N 69°40' E 018°59'0 0.0
2018-May-16 18:59N 69°40' E 018°59'0 0.0
2018-May-16 18:30N 69°40' E 018°59'0 0.0
2018-May-16 18:00N 69°40' E 018°59'0 0.0
2018-May-16 17:30N 69°40' E 018°59'0 0.0
2018-May-16 17:00N 69°40' E 018°59'0 0.0
2018-May-16 16:29N 69°40' E 018°59'0 0.0
2018-May-16 16:00N 69°40' E 018°59'0 0.0
2018-May-16 15:30N 69°40' E 018°59'0 0.0
2018-May-16 15:00N 69°40' E 018°59'0 0.0
2018-May-16 14:30N 69°40' E 018°59'0 0.0
2018-May-16 14:00N 69°40' E 018°59'0 0.0
2018-May-16 13:30N 69°40' E 018°59'0 0.0
2018-May-16 13:00N 69°40' E 018°59'0 0.0
2018-May-16 12:30N 69°40' E 018°59'0 0.0
2018-May-16 12:00N 69°40' E 018°59'0 0.0
2018-May-16 11:29N 69°40' E 018°59'0 0.0
2018-May-16 11:00N 69°40' E 018°59'0 0.0
2018-May-16 10:30N 69°40' E 018°59'0 0.0
2018-May-16 10:00N 69°40' E 018°59'0 0.0
2018-May-16 09:30N 69°40' E 018°59'0 0.0
2018-May-16 09:00N 69°40' E 018°59'0 0.0
2018-May-16 08:30N 69°40' E 018°59'0 0.0
2018-May-16 08:00N 69°40' E 018°59'0 0.0
2018-May-16 07:30N 69°40' E 018°59'0 0.0
2018-May-16 07:00N 69°40' E 018°59'0 0.0
2018-May-16 06:30N 69°40' E 018°59'0 0.0
2018-May-16 06:00N 69°40' E 018°59'0 0.0
2018-May-16 05:30N 69°40' E 018°59'0 0.0
2018-May-16 05:00N 69°40' E 018°59'0 0.0
2018-May-16 04:29N 69°40' E 018°59'0 0.0
2018-May-16 04:00N 69°40' E 018°59'0 0.0
2018-May-16 03:30N 69°40' E 018°59'0 0.0
2018-May-16 03:00N 69°40' E 018°59'0 0.0
2018-May-16 02:30N 69°40' E 018°59'0 0.0
2018-May-16 02:00N 69°40' E 018°59'0 0.0
2018-May-16 01:30N 69°40' E 018°59'0 0.0
2018-May-16 01:00N 69°40' E 018°59'0 0.0
2018-May-16 00:30N 69°40' E 018°59'0 0.0
2018-May-16 00:00N 69°40' E 018°59'0 0.0
2018-May-15 23:29N 69°40' E 018°59'0 0.0
2018-May-15 23:00N 69°40' E 018°59'0 0.0
2018-May-15 22:30N 69°40' E 018°59'0 0.0
2018-May-15 22:00N 69°40' E 018°59'0 0.0
2018-May-15 21:30N 69°40' E 018°59'0 0.0
2018-May-15 21:00N 69°40' E 018°59'0 0.0
2018-May-15 20:30N 69°40' E 018°59'0 0.0
2018-May-15 20:00N 69°40' E 018°59'0 0.0
2018-May-15 19:30N 69°40' E 018°59'0 0.0
2018-May-15 19:00N 69°40' E 018°59'0 0.0
2018-May-15 18:30N 69°40' E 018°59'0 0.0
2018-May-15 18:00N 69°40' E 018°59'0 0.0
2018-May-15 17:30N 69°40' E 018°59'0 0.0
2018-May-15 17:00N 69°40' E 018°59'0 0.0
2018-May-15 16:30N 69°40' E 018°59'0 0.0
2018-May-15 16:00N 69°40' E 018°59'0 0.0
2018-May-15 15:30N 69°40' E 018°59'0 0.0
2018-May-15 15:00N 69°40' E 018°59'0 0.0
2018-May-15 14:30N 69°40' E 018°59'0 0.0
2018-May-15 14:00N 69°40' E 018°59'0 0.0
2018-May-15 13:30N 69°40' E 018°59'0 0.0
2018-May-15 13:00N 69°40' E 018°59'0 0.0
2018-May-15 12:30N 69°40' E 018°59'0 0.0
2018-May-15 12:00N 69°40' E 018°59'0 0.0
2018-May-15 11:30N 69°40' E 018°59'0 0.0
2018-May-15 11:00N 69°40' E 018°59'0 0.0
2018-May-15 10:30N 69°40' E 018°59'0 0.0
2018-May-15 10:00N 69°40' E 018°59'0 0.0
2018-May-15 09:30N 69°40' E 018°59'0 0.0
2018-May-15 09:00N 69°40' E 018°59'0 0.0
2018-May-15 08:30N 69°40' E 018°59'0 0.0
2018-May-15 08:00N 69°40' E 018°59'0 0.0
2018-May-15 07:30N 69°40' E 018°59'0 0.0
2018-May-15 07:00N 69°40' E 018°59'0 0.0
2018-May-15 06:30N 69°40' E 018°59'0 0.0
2018-May-15 06:00N 69°40' E 018°59'0 0.0
2018-May-15 05:31N 69°40' E 018°59'0 0.0
2018-May-15 05:00N 69°40' E 018°59'0 0.0
2018-May-15 04:30N 69°40' E 018°59'0 0.0
2018-May-15 04:00N 69°40' E 018°59'0 0.0
2018-May-15 03:30N 69°40' E 018°59'0 0.0
2018-May-15 03:00N 69°40' E 018°59'0 0.0
2018-May-15 02:30N 69°40' E 018°59'0 0.0
2018-May-15 02:00N 69°40' E 018°59'0 0.0
2018-May-15 01:30N 69°40' E 018°59'0 0.0
2018-May-15 01:00N 69°40' E 018°59'0 0.0
2018-May-15 00:30N 69°40' E 018°59'  

Dump ship's entire track history